Airfield :







YOU CAN JOIN US ON...

 
LOGIN :

Register | Disclaimer

   EN    FR    IT 

 









Legend :    VFR   Marginal VFR   IFR   Intensive IFR   Very Intensive IFR
Visi :
Ceiling :
>= 8 km
>= 3000ft
5 to 8 km
1000 to 3000 ft
1500m to 5 km
500 to 1000 ft
800 to 1500m
200 to 500 ft
< 800m
< 200 ft
Symbols :   Thunderstorms  Fog  Heavy snow  Heavy precipitations  Wind > 20 kt







- Airport Elevation : 342 ft


KCON - Concord Municipal

CURRENT METAR :
  • 211651Z AUTO 00000KT 10SM CLR 27/15 A3017 RMK AO2 SLP216 T02670150

EXPIRED METARs :
  • 211551Z AUTO VRB03KT 10SM CLR 26/15 A3019 RMK AO2 SLP223 T02560150
  • 211451Z AUTO 31006KT 10SM CLR 23/14 A3021 RMK AO2 SLP230 T02330139 50001

TAF KCON
Valid from the 21 at 12:00 until the 22 at 12:00 UTC


211120Z 2112/2212 00000KT P6SM SKC
FM211700 VRB03KT P6SM FEW250
No reported NOTAMs for that airfield.



MET'MAP, your aeronautical weather chart ! - Copyright ORBIFLY December 2007 - Disclaimer

ORBIFLY MET'MAP TEAM :

Programming & Development : Alexandra Zaïnal
Concept & Development : Baudouin d'Aumeries
Co-Development & Prog : Marc-Olivier Méhu
Technical & hardware support : Manuel Goepfert

Contact : metmap@orbifly.com




SOURCES & CREDITS :

   NOAA